Newman Grove, Nebraska
Current Conditions -  °F | °C
As of 2:35 PM on Sunday 25 Jan 2015 (Local Time) from KBVN Reporting Station
Overcast Overcast  
Wind Chill: 33°   Ceiling: 1300
Heat Index: 40°   Visibility: 10mi
Dew Point: 33°   Wind: 13mph
Humidity: 75%   Direction: 330°NNW
Pressure: 30.03"   Gusts: NA
Location:  41.75°N, 97.78°W
Report Text: KBVN 252035Z AUTO 33011KT 10SM BKN013 OVC043 04/00 A3003 RMK AO2 T00440004
Loading
Personal Weather Stations






























Interactive Weather Map New forecast layout! Learn more

10-Day Weather Forecast

Advertisements
Track Severe Weather on mobile